Time;durP1;ratioP1;P1;durP2;ratioP2;P2;SDS_P1;SDS_P2;PMS_P1;PMS_P2;Temp;Humidity;BMP_temperature;BMP_pressure;BME280_temperature;BME280_humidity;BME280_pressure;Samples;Min_cycle;Max_cycle;Signal;HPM_P1;HPM_P2
2021/12/19 00:02:27;;;;;;;15.23;10.10;;;;;;;6.14;62.51;102854.75;4975403;28;20446;-42
2021/12/19 00:10:22;;;;;;;11.77;10.47;;;;;;;6.19;67.34;102844.63;4975055;28;20529;-42
2021/12/19 00:12:51;;;;;;;13.93;9.57;;;;;;;6.18;66.38;102836.81;4974837;28;21024;-41
2021/12/19 00:15:20;;;;;;;26.03;10.47;;;;;;;6.21;65.67;102833.94;4975385;28;20438;-43
2021/12/19 00:17:47;;;;;;;11.70;9.20;;;;;;;6.18;64.94;102836.81;4974571;28;20989;-41
2021/12/19 00:20:15;;;;;;;25.27;10.47;;;;;;;6.18;65.17;102832.38;4973845;28;20439;-41
2021/12/19 00:23:03;;;;;;;20.97;10.03;;;;;;;6.20;62.75;102833.09;4974964;28;20435;-42
2021/12/19 00:25:31;;;;;;;14.87;8.97;;;;;;;6.21;62.90;102841.88;4974477;28;20494;-43
2021/12/19 00:27:58;;;;;;;16.43;9.20;;;;;;;6.22;63.54;102839.09;4974526;28;20477;-41
2021/12/19 00:30:27;;;;;;;17.43;9.97;;;;;;;6.24;65.51;102846.94;4975101;28;20435;-41
2021/12/19 00:32:55;;;;;;;17.60;10.07;;;;;;;6.26;65.35;102831.75;4974614;28;20439;-43
2021/12/19 00:35:23;;;;;;;15.70;8.60;;;;;;;6.24;64.38;102846.94;4974804;28;20434;-42
2021/12/19 00:37:51;;;;;;;18.00;10.20;;;;;;;6.25;63.66;102875.97;4974104;28;20832;-41
2021/12/19 00:40:20;;;;;;;11.23;8.07;;;;;;;6.26;61.54;102858.25;4974551;28;20529;-45
2021/12/19 00:42:52;;;;;;;15.93;8.87;;;;;;;6.25;57.65;102841.53;4973628;28;20509;-43
2021/12/19 00:45:24;;;;;;;18.80;9.00;;;;;;;6.22;55.56;102843.56;4974880;28;20478;-43
2021/12/19 00:47:53;;;;;;;8.00;6.00;;;;;;;6.16;62.21;102833.41;4974290;28;20465;-42
2021/12/19 00:50:22;;;;;;;10.67;7.23;;;;;;;6.15;66.94;102840.56;4974948;28;20435;-41
2021/12/19 00:52:50;;;;;;;10.53;5.27;;;;;;;6.11;67.94;102834.63;4974105;28;20449;-41
2021/12/19 00:55:19;;;;;;;5.23;4.87;;;;;;;6.05;67.72;102819.22;4972865;28;20446;-41
2021/12/19 00:57:47;;;;;;;9.30;5.43;;;;;;;6.07;67.00;102813.78;4970855;28;20477;-42
2021/12/19 01:00:18;;;;;;;8.43;5.43;;;;;;;6.06;63.22;102809.47;4974329;28;20502;-41
2021/12/19 01:02:50;;;;;;;5.10;4.70;;;;;;;6.00;57.90;102805.44;4963854;28;20439;-43
2021/12/19 01:05:20;;;;;;;5.07;4.60;;;;;;;5.98;52.74;102802.09;4974389;28;20514;-44
2021/12/19 01:07:47;;;;;;;7.17;4.50;;;;;;;5.94;49.38;102808.56;4973588;28;20527;-41
2021/12/19 01:10:16;;;;;;;4.87;4.43;;;;;;;5.91;45.72;102811.44;4974233;28;20439;-41
2021/12/19 01:12:43;;;;;;;4.93;4.47;;;;;;;5.89;39.65;102801.94;4973831;28;20431;-43
2021/12/19 01:15:14;;;;;;;5.07;4.20;;;;;;;5.86;35.90;102807.47;4974327;28;20446;-42
2021/12/19 01:17:42;;;;;;;4.73;4.53;;;;;;;5.87;34.19;102807.34;4973517;28;20844;-41
2021/12/19 01:20:13;;;;;;;4.70;4.50;;;;;;;5.87;32.28;102812.66;4974229;28;20435;-41
2021/12/19 01:22:42;;;;;;;4.73;4.30;;;;;;;5.87;30.05;102810.00;4973703;28;20522;-41
2021/12/19 01:25:10;;;;;;;9.40;5.10;;;;;;;5.88;29.28;102802.91;4973917;28;20478;-41
2021/12/19 01:27:38;;;;;;;5.70;5.27;;;;;;;5.88;27.46;102809.06;4973260;28;20573;-41
2021/12/19 01:30:07;;;;;;;4.83;4.60;;;;;;;5.90;27.30;102793.88;4973905;28;20435;-43
2021/12/19 01:32:36;;;;;;;6.07;5.20;;;;;;;5.90;27.95;102801.84;4971060;28;20439;-43
2021/12/19 01:35:04;;;;;;;5.67;4.50;;;;;;;5.95;36.79;102798.81;4973925;28;20439;-43
2021/12/19 01:37:32;;;;;;;5.70;5.10;;;;;;;6.04;48.39;102808.72;4972751;28;20466;-42
2021/12/19 01:40:01;;;;;;;4.90;4.60;;;;;;;6.06;48.88;102802.34;4973532;28;20436;-43
2021/12/19 01:42:31;;;;;;;4.80;4.50;;;;;;;6.07;49.00;102796.09;4973515;28;20446;-42
2021/12/19 01:44:59;;;;;;;4.90;4.60;;;;;;;6.04;50.26;102796.31;4973467;28;20431;-42
2021/12/19 01:47:27;;;;;;;4.57;4.27;;;;;;;6.04;50.75;102816.66;4973046;28;20471;-43
2021/12/19 01:49:55;;;;;;;5.80;5.20;;;;;;;6.02;47.01;102802.69;4972537;28;20933;-44
2021/12/19 01:52:24;;;;;;;5.20;4.70;;;;;;;6.06;51.57;102812.94;4973613;28;20439;-43
2021/12/19 01:54:52;;;;;;;5.33;4.90;;;;;;;6.09;55.67;102796.81;4972567;28;20442;-43
2021/12/19 01:57:22;;;;;;;6.70;6.10;;;;;;;6.12;57.41;102791.28;4972864;28;20480;-42
2021/12/19 01:59:49;;;;;;;10.90;4.73;;;;;;;6.15;58.81;102766.38;4973443;28;20439;-43
2021/12/19 02:02:17;;;;;;;10.00;5.33;;;;;;;6.14;56.62;102738.19;4973784;28;20533;-45
2021/12/19 02:04:45;;;;;;;6.00;5.40;;;;;;;6.15;53.81;102734.59;4973252;28;20473;-44
2021/12/19 02:07:14;;;;;;;6.60;6.10;;;;;;;6.15;50.47;102752.28;4972715;28;20477;-44
2021/12/19 02:09:42;;;;;;;5.60;5.17;;;;;;;6.12;48.80;102770.09;4973179;28;21007;-44
2021/12/19 02:12:10;;;;;;;5.57;5.13;;;;;;;6.16;49.36;102769.84;4973534;28;20799;-42
2021/12/19 02:14:39;;;;;;;5.03;4.60;;;;;;;6.23;54.38;102749.88;4973321;28;21018;-45
2021/12/19 02:17:07;;;;;;;8.43;5.70;;;;;;;6.23;58.01;102732.19;4972802;28;20467;-44
2021/12/19 02:19:36;;;;;;;9.50;5.50;;;;;;;6.30;61.76;102737.84;4973507;28;20439;-44
2021/12/19 02:22:05;;;;;;;7.37;5.33;;;;;;;6.34;66.05;102726.03;4973415;28;20435;-43
2021/12/19 02:24:34;;;;;;;5.93;5.60;;;;;;;6.41;72.97;102728.09;4973492;28;20433;-43
2021/12/19 02:27:02;;;;;;;10.57;6.50;;;;;;;6.42;73.44;102735.03;4972602;28;20467;-45
2021/12/19 02:29:29;;;;;;;6.20;5.43;;;;;;;6.45;71.38;102739.28;4972861;28;20469;-44
2021/12/19 02:31:57;;;;;;;19.93;7.30;;;;;;;6.46;72.48;102715.28;4973307;28;20439;-43
2021/12/19 02:34:28;;;;;;;11.37;5.60;;;;;;;6.49;73.60;102724.81;4973173;28;20466;-43
2021/12/19 02:37:01;;;;;;;12.13;6.23;;;;;;;6.51;75.72;102728.19;4972486;28;20467;-43
2021/12/19 02:39:51;;;;;;;10.20;5.90;;;;;;;6.54;78.25;102738.56;4969839;28;20461;-45
2021/12/19 02:48:11;;;;;;;5.93;5.33;;;;;;;6.65;87.04;102722.63;4972602;28;20972;-44
2021/12/19 02:50:43;;;;;;;8.73;5.70;;;;;;;6.64;86.18;102720.94;4972857;28;20534;-43
2021/12/19 02:53:11;;;;;;;6.93;6.27;;;;;;;6.61;83.15;102718.53;4972459;28;20443;-46
2021/12/19 02:55:43;;;;;;;11.73;5.80;;;;;;;6.56;77.96;102689.75;4973080;28;20429;-47
2021/12/19 02:58:11;;;;;;;7.83;6.17;;;;;;;6.58;81.06;102663.09;4972321;28;20459;-43
2021/12/19 03:00:39;;;;;;;8.67;6.67;;;;;;;6.63;86.53;102690.94;4972778;28;20432;-43
2021/12/19 03:03:07;;;;;;;8.37;5.67;;;;;;;6.64;86.21;102697.06;4972792;28;20524;-44
2021/12/19 03:05:34;;;;;;;21.70;7.87;;;;;;;6.64;86.34;102692.63;4973858;28;20440;-47
2021/12/19 03:08:03;;;;;;;12.17;6.17;;;;;;;6.69;88.79;102689.59;4976163;28;20903;-44
2021/12/19 03:13:29;;;;;;;17.40;6.47;;;;;;;6.73;89.93;102685.72;4976660;28;20418;-45
2021/12/19 03:18:42;;;;;;;6.87;5.67;;;;;;;6.74;88.93;102673.31;4968914;28;20459;-47
2021/12/19 03:21:14;;;;;;;8.07;5.47;;;;;;;6.79;90.71;102674.63;4976625;28;20806;-47
2021/12/19 03:23:42;;;;;;;6.30;5.70;;;;;;;6.83;91.01;102691.13;4976717;28;20458;-43
2021/12/19 03:26:10;;;;;;;7.50;5.50;;;;;;;6.85;90.84;102687.38;4976103;28;20462;-41
2021/12/19 03:28:39;;;;;;;12.13;6.10;;;;;;;6.87;91.30;102684.63;4976246;28;20465;-43
2021/12/19 03:31:07;;;;;;;9.47;5.63;;;;;;;6.84;90.70;102677.75;4976498;28;20431;-45
2021/12/19 03:33:37;;;;;;;12.03;5.33;;;;;;;6.87;90.80;102672.19;4976481;28;20522;-44
2021/12/19 03:36:07;;;;;;;7.87;6.20;;;;;;;6.85;91.13;102668.81;4964866;28;20510;-45
2021/12/19 03:38:40;;;;;;;14.33;6.03;;;;;;;6.87;90.93;102660.75;4961615;28;20459;-45
2021/12/19 03:41:15;;;;;;;10.93;6.03;;;;;;;6.89;92.41;102650.84;4976315;28;20431;-45
2021/12/19 03:43:46;;;;;;;5.67;5.07;;;;;;;6.87;91.85;102631.59;4976255;28;20443;-45
2021/12/19 03:46:13;;;;;;;8.23;5.90;;;;;;;6.91;91.96;102636.50;4975424;28;20463;-42
2021/12/19 03:48:41;;;;;;;7.67;5.43;;;;;;;6.94;92.81;102648.66;4976090;28;20462;-45
2021/12/19 03:51:09;;;;;;;9.03;6.00;;;;;;;6.93;92.13;102655.75;4975624;28;20446;-44
2021/12/19 03:53:37;;;;;;;12.73;6.13;;;;;;;6.97;92.65;102646.59;4975739;28;20778;-43
2021/12/19 03:56:05;;;;;;;6.60;6.00;;;;;;;6.96;93.02;102650.22;4975631;28;20437;-42
2021/12/19 03:58:32;;;;;;;12.87;6.30;;;;;;;6.97;92.43;102645.75;4975737;28;20455;-42
2021/12/19 04:01:05;;;;;;;6.73;5.30;;;;;;;6.94;92.33;102646.84;4975431;28;20439;-42
2021/12/19 04:03:33;;;;;;;9.00;5.27;;;;;;;6.93;92.68;102629.25;4968751;28;20434;-42
2021/12/19 04:06:01;;;;;;;12.53;6.10;;;;;;;6.97;93.23;102649.25;4974731;28;20428;-43
2021/12/19 04:08:28;;;;;;;8.83;5.10;;;;;;;7.01;92.90;102640.09;4975266;28;20451;-42
2021/12/19 04:10:56;;;;;;;9.00;5.37;;;;;;;7.02;93.17;102638.25;4975696;28;20439;-44
2021/12/19 04:13:24;;;;;;;7.57;5.37;;;;;;;7.02;93.46;102619.69;4975670;28;20431;-44
2021/12/19 04:15:52;;;;;;;8.73;5.30;;;;;;;6.99;93.29;102606.69;4975134;28;20433;-43
2021/12/19 04:18:21;;;;;;;8.90;5.50;;;;;;;7.03;93.75;102618.72;4974665;28;20446;-44
2021/12/19 04:20:49;;;;;;;12.80;5.80;;;;;;;7.04;93.79;102617.75;4975330;28;20530;-42
2021/12/19 04:23:17;;;;;;;8.27;5.73;;;;;;;7.02;93.71;102617.03;4975240;28;20464;-45
2021/12/19 04:25:45;;;;;;;12.00;6.17;;;;;;;7.04;93.50;102615.09;4975320;28;20434;-43
2021/12/19 04:28:13;;;;;;;9.47;6.47;;;;;;;7.03;93.22;102619.56;4974461;28;20498;-41
2021/12/19 04:30:41;;;;;;;10.53;6.67;;;;;;;7.05;93.53;102603.50;4975055;28;20430;-44
2021/12/19 04:33:11;;;;;;;7.07;6.33;;;;;;;7.05;93.13;102608.81;4974862;28;21117;-43
2021/12/19 04:35:43;;;;;;;11.43;7.50;;;;;;;7.06;93.50;102603.38;4974990;28;20427;-44
2021/12/19 04:41:37;;;;;;;10.20;6.17;;;;;;;7.04;93.72;102581.47;4974762;28;20957;-44
2021/12/19 04:55:23;;;;;;;12.80;6.70;;;;;;;7.03;93.50;102558.56;4937374;28;20996;-42
2021/12/19 04:57:57;;;;;;;8.33;5.50;;;;;;;7.06;93.56;102552.13;4973854;28;20469;-43
2021/12/19 05:00:34;;;;;;;8.83;6.00;;;;;;;7.01;93.30;102555.19;4974856;28;20438;-44
2021/12/19 05:03:07;;;;;;;8.40;5.43;;;;;;;7.04;93.05;102562.06;4974695;28;20458;-42
2021/12/19 05:05:54;;;;;;;7.20;5.80;;;;;;;7.06;93.26;102581.31;4974735;28;20853;-42
2021/12/19 05:14:08;;;;;;;8.40;6.43;;;;;;;7.08;93.27;102566.09;4974514;28;20438;-46
2021/12/19 05:16:39;;;;;;;12.77;6.20;;;;;;;7.10;93.42;102557.06;4973718;28;20463;-42
2021/12/19 05:19:17;;;;;;;6.63;5.87;;;;;;;7.14;92.90;102560.28;4974119;28;20447;-44
2021/12/19 05:21:46;;;;;;;11.20;7.27;;;;;;;7.13;93.65;102562.13;4974530;28;20457;-45
2021/12/19 05:24:43;;;;;;;10.17;7.00;;;;;;;7.11;93.20;102553.44;4974166;28;20431;-46
2021/12/19 05:27:11;;;;;;;8.93;6.30;;;;;;;7.12;93.32;102531.25;4966697;28;20467;-45
2021/12/19 05:29:39;;;;;;;10.87;6.30;;;;;;;7.14;92.75;102542.56;4974140;28;20426;-44
2021/12/19 05:32:08;;;;;;;5.60;5.10;;;;;;;7.17;93.32;102533.50;4974115;28;20473;-44
2021/12/19 05:34:36;;;;;;;7.80;6.30;;;;;;;7.17;92.92;102528.19;4974026;28;20494;-45
2021/12/19 05:45:21;;;;;;;8.50;5.53;;;;;;;7.19;93.24;102529.75;4973726;28;20927;-44
2021/12/19 05:47:50;;;;;;;9.37;6.50;;;;;;;7.17;92.83;102513.13;4973144;28;20481;-42
2021/12/19 05:50:21;;;;;;;6.57;6.00;;;;;;;7.11;92.73;102526.91;4973787;28;20571;-45
2021/12/19 05:52:49;;;;;;;10.83;6.00;;;;;;;7.11;93.29;102518.94;4973365;28;20967;-47
2021/12/19 05:55:20;;;;;;;12.90;6.70;;;;;;;7.07;93.00;102514.88;4970554;28;20446;-42
2021/12/19 05:57:48;;;;;;;9.83;7.23;;;;;;;7.14;92.77;102509.88;4964250;28;20898;-45
2021/12/19 06:00:18;;;;;;;11.80;6.50;;;;;;;7.10;92.72;102500.50;4973624;28;20431;-43
2021/12/19 06:02:46;;;;;;;16.50;7.83;;;;;;;7.12;92.84;102511.81;4973598;28;20432;-47
2021/12/19 06:05:14;;;;;;;9.80;5.73;;;;;;;7.10;92.89;102508.47;4973656;28;20542;-45
2021/12/19 06:07:42;;;;;;;13.93;8.10;;;;;;;7.09;92.93;102509.44;4972914;28;20475;-44
2021/12/19 06:10:11;;;;;;;19.60;7.23;;;;;;;7.07;92.81;102517.53;4973364;28;20434;-46
2021/12/19 06:12:40;;;;;;;8.93;5.73;;;;;;;7.06;93.14;102521.16;4973438;28;20443;-44
2021/12/19 06:15:09;;;;;;;8.20;6.10;;;;;;;7.08;93.48;102516.56;4973245;28;20431;-42
2021/12/19 06:17:37;;;;;;;12.10;5.67;;;;;;;7.12;93.28;102512.66;4972860;28;20837;-44
2021/12/19 06:20:07;;;;;;;7.53;6.40;;;;;;;7.09;93.10;102504.13;4973426;28;20427;-44
2021/12/19 06:22:34;;;;;;;11.70;6.53;;;;;;;7.05;93.03;102505.34;4973132;28;20963;-43
2021/12/19 06:25:02;;;;;;;14.93;5.57;;;;;;;7.06;93.07;102491.13;4973396;28;20442;-45
2021/12/19 06:27:30;;;;;;;10.13;5.67;;;;;;;7.07;93.46;102498.13;4972439;28;20493;-42
2021/12/19 06:29:59;;;;;;;6.90;5.83;;;;;;;7.07;92.93;102506.94;4973181;28;20438;-45
2021/12/19 06:32:27;;;;;;;10.73;6.67;;;;;;;7.07;93.09;102506.94;4973263;28;20533;-44
2021/12/19 06:34:54;;;;;;;20.37;7.63;;;;;;;7.07;93.21;102488.38;4960695;28;20442;-44
2021/12/19 06:37:22;;;;;;;9.97;5.77;;;;;;;7.09;92.70;102509.44;4985052;28;20470;-42
2021/12/19 06:39:50;;;;;;;10.50;6.77;;;;;;;7.09;93.25;102498.81;4987634;28;20814;-43
2021/12/19 06:42:17;;;;;;;8.07;5.80;;;;;;;7.08;92.57;102487.38;4992238;28;21246;-43
2021/12/19 06:44:45;;;;;;;13.83;5.90;;;;;;;7.07;92.51;102495.47;4992576;28;20430;-42
2021/12/19 06:47:14;;;;;;;11.90;5.83;;;;;;;7.08;92.86;102490.03;4991805;28;20465;-43
2021/12/19 06:49:41;;;;;;;6.57;5.30;;;;;;;7.07;92.51;102498.13;4992471;28;20489;-46
2021/12/19 06:52:09;;;;;;;10.33;5.53;;;;;;;7.09;92.45;102491.72;4992195;28;20441;-46
2021/12/19 06:54:37;;;;;;;8.53;6.00;;;;;;;7.06;92.21;102494.63;4991909;28;20434;-46
2021/12/19 06:57:04;;;;;;;7.33;5.70;;;;;;;7.13;92.46;102493.16;4992052;28;20472;-46
2021/12/19 06:59:32;;;;;;;11.50;6.60;;;;;;;7.15;92.20;102480.56;4992123;28;20454;-46
2021/12/19 07:02:00;;;;;;;9.17;5.67;;;;;;;7.15;92.47;102491.19;4992357;28;20526;-44
2021/12/19 07:04:29;;;;;;;13.03;5.70;;;;;;;7.17;92.49;102493.69;4992379;28;20797;-43
2021/12/19 07:06:56;;;;;;;17.93;6.40;;;;;;;7.16;92.10;102484.91;4991811;28;20463;-44
2021/12/19 07:09:24;;;;;;;13.53;7.27;;;;;;;7.20;92.79;102504.88;4992217;28;20489;-43
2021/12/19 07:11:52;;;;;;;6.50;5.90;;;;;;;7.20;92.57;102496.94;4992194;28;20443;-43
2021/12/19 07:14:19;;;;;;;16.50;7.80;;;;;;;7.23;92.63;102501.13;4992235;28;20442;-44
2021/12/19 07:16:47;;;;;;;7.57;5.60;;;;;;;7.26;92.79;102478.81;4991584;28;20468;-47
2021/12/19 07:19:14;;;;;;;10.10;5.97;;;;;;;7.31;93.13;102468.63;4992408;28;20454;-45
2021/12/19 07:21:43;;;;;;;9.10;5.90;;;;;;;7.29;92.58;102489.16;4988916;28;20529;-45
2021/12/19 07:24:11;;;;;;;9.37;7.10;;;;;;;7.32;93.29;102484.41;4992024;28;20813;-45
2021/12/19 07:26:39;;;;;;;9.27;6.67;;;;;;;7.32;93.04;102491.56;4991826;28;20466;-45
2021/12/19 07:29:06;;;;;;;13.93;6.30;;;;;;;7.32;92.89;102491.56;4992262;28;20559;-44
2021/12/19 07:31:37;;;;;;;9.67;6.03;;;;;;;7.37;93.32;102494.66;4991734;28;20940;-44
2021/12/19 07:34:04;;;;;;;10.07;6.00;;;;;;;7.34;93.33;102493.09;4991579;28;20430;-43
2021/12/19 07:36:38;;;;;;;8.40;6.23;;;;;;;7.33;92.72;102486.09;4985567;28;20554;-44
2021/12/19 07:39:11;;;;;;;17.07;7.93;;;;;;;7.36;92.98;102485.84;4970323;28;20459;-44
2021/12/19 07:41:39;;;;;;;14.73;6.23;;;;;;;7.35;92.85;102484.16;4972506;28;20832;-43
2021/12/19 07:44:08;;;;;;;11.63;7.23;;;;;;;7.35;93.03;102470.06;4967823;28;20510;-44
2021/12/19 07:46:35;;;;;;;6.97;5.50;;;;;;;7.38;92.48;102473.25;4960841;28;20474;-48
2021/12/19 07:49:03;;;;;;;11.30;5.90;;;;;;;7.40;93.36;102473.16;4969441;28;20481;-46
2021/12/19 07:51:30;;;;;;;10.50;6.50;;;;;;;7.34;93.09;102463.91;4971421;28;20435;-44
2021/12/19 07:53:58;;;;;;;14.77;7.00;;;;;;;7.33;93.02;102464.03;4974382;28;20435;-43
2021/12/19 07:56:28;;;;;;;11.13;5.90;;;;;;;7.34;92.69;102463.91;4973822;28;21008;-45
2021/12/19 07:58:55;;;;;;;12.70;7.23;;;;;;;7.35;92.76;102465.56;4974667;28;20447;-45
2021/12/19 08:01:23;;;;;;;13.37;7.17;;;;;;;7.34;93.04;102463.91;4974541;28;20545;-43
2021/12/19 08:03:50;;;;;;;13.60;5.83;;;;;;;7.35;92.87;102473.53;4974888;28;20428;-46
2021/12/19 08:06:18;;;;;;;8.70;6.27;;;;;;;7.39;92.50;102464.34;4974004;28;20467;-44
2021/12/19 08:08:49;;;;;;;15.60;7.10;;;;;;;7.39;93.09;102455.53;4974590;28;20489;-44
2021/12/19 08:14:04;;;;;;;20.80;7.20;;;;;;;7.42;93.21;102464.06;4961408;28;20438;-44
2021/12/19 08:16:31;;;;;;;14.07;6.30;;;;;;;7.42;92.64;102458.75;4973242;28;20486;-43
2021/12/19 08:18:59;;;;;;;14.07;6.80;;;;;;;7.45;92.74;102463.81;4949363;28;20830;-43
2021/12/19 08:21:27;;;;;;;7.27;5.50;;;;;;;7.45;92.79;102461.16;4974057;28;20518;-45
2021/12/19 08:23:58;;;;;;;10.20;6.80;;;;;;;7.46;92.80;102456.69;4936762;28;20465;-45
2021/12/19 08:26:26;;;;;;;12.03;6.30;;;;;;;7.44;93.12;102462.09;4948898;28;20494;-45
2021/12/19 08:28:54;;;;;;;10.20;6.70;;;;;;;7.53;93.16;102463.13;4973724;28;20987;-44
2021/12/19 08:31:23;;;;;;;6.87;5.33;;;;;;;7.54;92.89;102448.88;4973766;28;20439;-45
2021/12/19 08:33:50;;;;;;;9.67;4.70;;;;;;;7.53;93.08;102448.03;4974031;28;20522;-44
2021/12/19 08:36:18;;;;;;;7.60;6.30;;;;;;;7.57;92.97;102456.56;4973398;28;20520;-47
2021/12/19 08:38:46;;;;;;;9.70;6.77;;;;;;;7.57;92.71;102453.91;4960623;28;20465;-46
2021/12/19 08:41:15;;;;;;;10.97;5.20;;;;;;;7.56;92.80;102447.75;4973624;28;20440;-45
2021/12/19 08:43:42;;;;;;;9.60;5.60;;;;;;;7.56;92.71;102450.41;4974130;28;20437;-49
2021/12/19 08:46:11;;;;;;;11.37;7.13;;;;;;;7.58;92.79;102451.13;4973260;28;20474;-43
2021/12/19 08:48:40;;;;;;;13.03;6.33;;;;;;;7.55;92.70;102447.91;4973603;28;20447;-45
2021/12/19 08:51:08;;;;;;;15.30;6.00;;;;;;;7.59;92.97;102431.56;4973249;28;20445;-44
2021/12/19 08:53:36;;;;;;;13.30;5.77;;;;;;;7.56;92.90;102436.28;4973833;28;20439;-43
2021/12/19 08:56:04;;;;;;;8.90;5.90;;;;;;;7.56;92.62;102434.47;4972621;28;20463;-43
2021/12/19 08:58:32;;;;;;;11.97;6.90;;;;;;;7.61;92.99;102428.78;4973423;28;20828;-43
2021/12/19 09:01:01;;;;;;;11.50;7.03;;;;;;;7.62;92.82;102427.78;4973677;28;20454;-45
2021/12/19 09:03:30;;;;;;;9.83;6.30;;;;;;;7.63;92.81;102432.97;4925469;28;20836;-43
2021/12/19 09:05:59;;;;;;;11.27;6.60;;;;;;;7.57;92.56;102430.88;4973512;28;20435;-44
2021/12/19 09:08:27;;;;;;;10.70;5.70;;;;;;;7.62;92.93;102422.47;4972952;28;20463;-44
2021/12/19 09:10:56;;;;;;;17.47;7.50;;;;;;;7.58;92.26;102410.47;4948391;28;20467;-44
2021/12/19 09:13:23;;;;;;;13.90;6.47;;;;;;;7.56;92.46;102393.81;4964966;28;20432;-46
2021/12/19 09:15:51;;;;;;;10.23;6.87;;;;;;;7.60;92.47;102413.81;4947328;28;20451;-44
2021/12/19 09:18:19;;;;;;;16.93;7.50;;;;;;;7.60;92.52;102389.94;4972775;28;20550;-43
2021/12/19 09:20:47;;;;;;;21.83;6.87;;;;;;;7.61;92.40;102404.88;4972830;28;20436;-43
2021/12/19 09:23:17;;;;;;;10.47;5.93;;;;;;;7.63;92.74;102417.03;4949726;28;20431;-43
2021/12/19 09:25:46;;;;;;;15.63;7.40;;;;;;;7.66;92.55;102414.13;4971905;28;20452;-45
2021/12/19 09:28:13;;;;;;;17.23;6.20;;;;;;;7.63;92.39;102390.50;4972744;28;20820;-42
2021/12/19 09:30:43;;;;;;;12.90;6.90;;;;;;;7.66;92.91;102390.22;4972843;28;20475;-44
2021/12/19 09:33:11;;;;;;;20.07;6.97;;;;;;;7.62;92.85;102380.00;4973337;28;20439;-44
2021/12/19 09:35:38;;;;;;;15.97;6.20;;;;;;;7.61;92.79;102392.47;4971549;28;20553;-44
2021/12/19 09:38:06;;;;;;;13.13;5.83;;;;;;;7.62;92.59;102403.88;4946015;28;20542;-44
2021/12/19 09:40:38;;;;;;;22.00;8.73;;;;;;;7.68;93.00;102412.16;4971998;28;20432;-45
2021/12/19 09:43:21;;;;;;;11.40;5.70;;;;;;;7.72;92.54;102404.75;4971989;28;20793;-43
2021/12/19 09:45:53;;;;;;;14.00;5.50;;;;;;;7.68;93.08;102382.09;4972504;28;20439;-44
2021/12/19 09:48:20;;;;;;;16.97;6.10;;;;;;;7.71;93.04;102413.69;4947189;28;20467;-46
2021/12/19 09:50:48;;;;;;;15.17;6.80;;;;;;;7.70;93.04;102420.84;4971778;28;20478;-47
2021/12/19 09:53:16;;;;;;;9.93;6.50;;;;;;;7.75;92.95;102415.09;4972733;28;20446;-42
2021/12/19 09:55:45;;;;;;;22.77;7.00;;;;;;;7.79;92.72;102404.06;4971971;28;20443;-44
2021/12/19 09:58:13;;;;;;;20.63;6.50;;;;;;;7.82;92.67;102411.75;4972346;28;20459;-44
2021/12/19 10:00:41;;;;;;;13.20;6.47;;;;;;;7.87;92.79;102398.06;4971746;28;20841;-44
2021/12/19 10:03:11;;;;;;;14.73;7.57;;;;;;;7.80;92.95;102392.47;4955415;28;20462;-43
2021/12/19 10:05:39;;;;;;;14.50;8.20;;;;;;;7.79;93.03;102395.28;4991758;28;20525;-45
2021/12/19 10:08:06;;;;;;;11.10;6.00;;;;;;;7.77;93.05;102405.19;4991711;28;20826;-45
2021/12/19 10:10:43;;;;;;;11.23;6.60;;;;;;;7.84;92.66;102414.28;4991465;28;20478;-45
2021/12/19 10:13:13;;;;;;;14.33;7.37;;;;;;;7.86;92.94;102404.34;4953289;28;20901;-42
2021/12/19 10:15:42;;;;;;;12.40;6.97;;;;;;;7.93;92.69;102407.28;4947285;28;20434;-45
2021/12/19 10:18:12;;;;;;;16.07;6.60;;;;;;;7.91;92.65;102380.88;4971315;28;20493;-43
2021/12/19 10:20:43;;;;;;;17.27;7.17;;;;;;;7.87;92.52;102371.50;4972041;28;20445;-43
2021/12/19 10:23:12;;;;;;;11.17;6.57;;;;;;;7.74;92.30;102369.13;4947717;28;20493;-45
2021/12/19 10:25:40;;;;;;;16.23;6.60;;;;;;;7.74;92.38;102377.09;4946216;28;20807;-43
2021/12/19 10:28:10;;;;;;;17.87;7.50;;;;;;;7.87;92.04;102392.75;4947256;28;20478;-45
2021/12/19 10:30:43;;;;;;;18.47;6.40;;;;;;;7.89;91.66;102389.94;4990971;28;20480;-43
2021/12/19 10:33:12;;;;;;;16.40;8.50;;;;;;;7.88;91.49;102388.28;4991960;28;20521;-43
2021/12/19 10:35:41;;;;;;;8.33;6.20;;;;;;;7.91;91.51;102383.53;4990798;28;20460;-44
2021/12/19 10:38:14;;;;;;;8.50;5.60;;;;;;;7.86;90.91;102377.78;4990173;28;20453;-44
2021/12/19 10:40:46;;;;;;;16.37;7.17;;;;;;;7.90;91.32;102368.56;4969439;28;20423;-44
2021/12/19 10:43:16;;;;;;;12.60;6.70;;;;;;;7.88;91.34;102375.84;4972357;28;20498;-46
2021/12/19 10:45:48;;;;;;;18.40;7.00;;;;;;;7.88;91.16;102372.34;4971772;28;20431;-44
2021/12/19 10:48:22;;;;;;;8.93;6.90;;;;;;;7.92;90.57;102384.34;4971397;28;20820;-44
2021/12/19 10:50:53;;;;;;;6.90;5.70;;;;;;;7.94;90.26;102366.47;4971691;28;20458;-44
2021/12/19 10:53:25;;;;;;;16.63;7.97;;;;;;;7.98;90.53;102381.13;4971929;28;20954;-42
2021/12/19 10:55:54;;;;;;;8.53;7.20;;;;;;;7.96;89.25;102391.06;4971303;28;20546;-43
2021/12/19 10:58:35;;;;;;;9.83;6.80;;;;;;;7.97;89.12;102392.78;4968783;28;20481;-45
2021/12/19 11:01:10;;;;;;;7.60;5.70;;;;;;;7.96;88.73;102373.31;4971545;28;20425;-44
2021/12/19 11:03:55;;;;;;;8.60;6.10;;;;;;;7.98;88.70;102366.03;4972125;28;20438;-44
2021/12/19 11:06:26;;;;;;;12.13;5.83;;;;;;;8.04;88.61;102359.31;4962129;28;20449;-43
2021/12/19 11:08:55;;;;;;;8.50;6.60;;;;;;;8.04;88.53;102349.53;4947422;28;20485;-45
2021/12/19 11:11:46;;;;;;;10.57;6.93;;;;;;;8.06;88.59;102350.25;4970629;28;21028;-48
2021/12/19 11:14:17;;;;;;;14.10;6.50;;;;;;;8.13;88.47;102351.34;4967965;28;20457;-45
2021/12/19 11:16:47;;;;;;;12.40;6.80;;;;;;;8.11;88.13;102349.81;4971800;28;20434;-45
2021/12/19 11:19:14;;;;;;;14.13;7.00;;;;;;;8.15;88.11;102356.53;4946824;28;21381;-44
2021/12/19 11:21:42;;;;;;;9.70;6.93;;;;;;;8.15;88.23;102354.69;4971429;28;20963;-44
2021/12/19 11:24:12;;;;;;;12.87;6.80;;;;;;;8.20;88.31;102349.81;4938285;28;20462;-43
2021/12/19 11:26:42;;;;;;;13.03;6.57;;;;;;;8.14;88.00;102333.59;4949614;28;20466;-43
2021/12/19 11:29:11;;;;;;;13.97;6.13;;;;;;;8.12;87.41;102330.25;4952154;28;20591;-43
2021/12/19 11:31:42;;;;;;;13.13;6.40;;;;;;;8.12;87.57;102333.72;4951666;28;20508;-43
2021/12/19 11:34:25;;;;;;;13.57;6.80;;;;;;;8.13;86.87;102313.31;4974230;28;20469;-44
2021/12/19 11:36:58;;;;;;;11.70;7.53;;;;;;;8.12;86.43;102332.91;4974807;28;20783;-44
2021/12/19 11:39:29;;;;;;;15.80;7.73;;;;;;;8.20;86.34;102328.56;4975117;28;20451;-44
2021/12/19 11:42:06;;;;;;;15.90;7.30;;;;;;;8.16;86.76;102307.72;4974183;28;20796;-44
2021/12/19 11:44:37;;;;;;;16.60;7.20;;;;;;;8.14;86.60;102323.81;4974878;28;20431;-46
2021/12/19 11:47:07;;;;;;;22.00;8.37;;;;;;;8.20;86.19;102323.25;4974964;28;20423;-45
2021/12/19 11:49:36;;;;;;;14.23;7.03;;;;;;;8.24;85.29;102324.63;4972189;28;20451;-43
2021/12/19 11:52:24;;;;;;;6.90;6.30;;;;;;;8.24;83.06;102311.31;4974539;28;20843;-43
2021/12/19 11:55:22;;;;;;;12.10;7.00;;;;;;;8.19;83.30;102299.47;4965121;28;21171;-42
2021/12/19 11:58:19;;;;;;;7.23;6.40;;;;;;;8.24;82.50;102318.50;4974328;28;20454;-43
2021/12/19 12:00:50;;;;;;;8.97;6.73;;;;;;;8.28;81.80;102310.09;4940024;28;20459;-47
2021/12/19 12:03:24;;;;;;;7.97;6.63;;;;;;;8.28;81.51;102302.13;4951993;28;20478;-45
2021/12/19 12:06:14;;;;;;;12.23;7.97;;;;;;;8.21;81.63;102298.31;4966539;28;20828;-44
2021/12/19 12:09:14;;;;;;;6.63;6.03;;;;;;;8.21;81.75;102311.63;4974115;28;20894;-44
2021/12/19 12:12:08;;;;;;;11.63;6.67;;;;;;;8.13;81.43;102315.97;4974270;28;20466;-44
2021/12/19 12:14:39;;;;;;;14.23;6.47;;;;;;;8.03;81.10;102310.69;4973568;28;20852;-45
2021/12/19 12:17:12;;;;;;;13.17;7.30;;;;;;;7.98;80.87;102296.97;4974344;28;20835;-43
2021/12/19 12:19:42;;;;;;;12.27;7.30;;;;;;;7.90;81.43;102302.16;4951143;28;20459;-44
2021/12/19 12:22:36;;;;;;;14.17;7.70;;;;;;;7.95;81.85;102307.88;4974463;28;20466;-45
2021/12/19 12:25:17;;;;;;;12.13;7.70;;;;;;;7.93;81.67;102304.53;4974356;28;20510;-43
2021/12/19 12:27:48;;;;;;;17.20;8.20;;;;;;;7.83;81.98;102277.13;4966236;28;20447;-45
2021/12/19 12:30:19;;;;;;;13.13;7.10;;;;;;;7.86;81.88;102289.28;4973846;28;20443;-42
2021/12/19 12:32:47;;;;;;;10.90;7.60;;;;;;;7.80;81.30;102301.31;4974141;28;20530;-47